Eagle Bend, Minnesota
Current Conditions -  °F | °C
As of 10:33 AM on Wednesday 26 Nov 2014 (Local Time) from KSAZ Reporting Station
Light Snow Light Snow  
Wind Chill:   Ceiling: 1500
Heat Index: 16°   Visibility: 10mi
Dew Point:   Wind: 9mph
Humidity: 73%   Direction: 360°N
Pressure: 30.23"   Gusts: NA
Location:  46.16°N, 95.04°W
Report Text: KSAZ 261633Z AUTO 36008KT 10SM -SN BKN015 M09/M13 A3023 RMK AO2
Loading
Personal Weather Stations






























Interactive Weather Map New forecast layout! Learn more

10-Day Weather Forecast

Advertisements
Track Severe Weather on mobile